createdAt,value
2023-03-26T00:02:05.020Z,18.70
2023-03-26T00:04:34.395Z,18.50
2023-03-26T00:07:03.260Z,18.20
2023-03-26T00:09:32.738Z,19.00
2023-03-26T00:12:00.881Z,17.90
2023-03-26T00:14:29.974Z,19.10
2023-03-26T00:16:58.183Z,18.30
2023-03-26T00:19:27.792Z,18.90
2023-03-26T00:21:57.625Z,18.80
2023-03-26T00:24:29.885Z,17.40
2023-03-26T00:26:59.676Z,17.70
2023-03-26T00:29:28.832Z,16.80
2023-03-26T00:31:56.942Z,17.40
2023-03-26T00:34:25.071Z,17.80
2023-03-26T00:36:55.262Z,17.40
2023-03-26T00:39:24.032Z,17.70
2023-03-26T00:41:54.409Z,17.10
2023-03-26T00:44:24.432Z,17.50
2023-03-26T00:46:52.626Z,17.30
2023-03-26T00:49:20.731Z,17.60
2023-03-26T00:51:48.799Z,18.30
2023-03-26T00:54:17.375Z,18.40
2023-03-26T00:56:45.571Z,18.00
2023-03-26T00:59:13.689Z,16.30
2023-03-26T01:01:44.751Z,16.90
2023-03-26T01:04:27.496Z,16.80
2023-03-26T01:06:58.500Z,16.50
2023-03-26T01:09:35.242Z,16.80
2023-03-26T01:12:06.677Z,17.50
2023-03-26T01:14:34.967Z,17.60
2023-03-26T01:17:07.133Z,17.30
2023-03-26T01:19:40.683Z,17.20
2023-03-26T01:22:12.121Z,17.30
2023-03-26T01:24:42.157Z,16.20
2023-03-26T01:27:19.922Z,16.60
2023-03-26T01:29:54.329Z,17.20
2023-03-26T01:32:38.045Z,16.70
2023-03-26T01:35:20.064Z,16.80
2023-03-26T01:37:58.860Z,16.30
2023-03-26T01:40:38.641Z,16.70
2023-03-26T01:43:23.498Z,16.90
2023-03-26T01:45:53.455Z,17.10
2023-03-26T01:48:21.764Z,16.90
2023-03-26T01:50:53.592Z,16.50
2023-03-26T01:53:21.778Z,17.20
2023-03-26T01:56:02.307Z,16.90
2023-03-26T01:58:36.910Z,16.60
2023-03-26T02:01:17.287Z,17.00
2023-03-26T02:03:51.687Z,17.20
2023-03-26T02:06:26.338Z,16.90
2023-03-26T02:08:59.476Z,17.10
2023-03-26T02:11:35.543Z,17.30
2023-03-26T02:14:05.963Z,17.90
2023-03-26T02:16:34.337Z,15.70
2023-03-26T02:19:04.358Z,15.60
2023-03-26T02:21:34.009Z,16.20
2023-03-26T02:24:04.057Z,15.80
2023-03-26T02:26:35.657Z,14.30
2023-03-26T02:29:04.162Z,14.00
2023-03-26T02:31:32.794Z,14.70
2023-03-26T02:34:00.933Z,15.80
2023-03-26T02:36:29.272Z,15.70
2023-03-26T02:39:00.222Z,15.10
2023-03-26T02:41:28.278Z,14.20
2023-03-26T02:43:57.682Z,14.40
2023-03-26T02:46:25.849Z,15.20
2023-03-26T02:48:54.660Z,12.10
2023-03-26T02:51:22.761Z,11.00
2023-03-26T02:53:51.180Z,11.70
2023-03-26T02:56:19.239Z,12.20
2023-03-26T02:58:48.362Z,12.70
2023-03-26T03:01:18.456Z,12.40
2023-03-26T03:03:48.446Z,12.50
2023-03-26T03:06:18.801Z,12.60
2023-03-26T03:08:47.339Z,10.30
2023-03-26T03:11:17.225Z,9.30
2023-03-26T03:13:46.355Z,11.00
2023-03-26T03:16:15.386Z,11.40
2023-03-26T03:18:44.882Z,11.00
2023-03-26T03:21:12.988Z,10.60
2023-03-26T03:23:41.115Z,11.40
2023-03-26T03:26:15.623Z,10.70
2023-03-26T03:28:45.019Z,4.90
2023-03-26T03:31:13.151Z,1.00
2023-03-26T03:33:43.039Z,1.00
2023-03-26T03:36:19.744Z,1.00
2023-03-26T03:38:48.953Z,1.00
2023-03-26T03:41:18.473Z,1.00
2023-03-26T03:43:46.472Z,1.00
2023-03-26T03:46:14.750Z,1.00
2023-03-26T03:48:48.126Z,1.00
2023-03-26T03:51:18.233Z,1.00
2023-03-26T03:53:47.236Z,1.00
2023-03-26T03:56:18.889Z,1.00
2023-03-26T03:58:47.379Z,1.00
2023-03-26T04:01:16.802Z,1.00
2023-03-26T04:03:46.514Z,1.00
2023-03-26T04:06:18.941Z,1.00
2023-03-26T04:08:48.666Z,1.00
2023-03-26T04:11:16.614Z,1.00
2023-03-26T04:13:44.917Z,1.00
2023-03-26T04:16:13.043Z,1.00
2023-03-26T04:18:41.263Z,1.00
2023-03-26T04:21:09.375Z,1.00
2023-03-26T04:23:37.428Z,1.00
2023-03-26T04:26:10.478Z,1.00
2023-03-26T04:28:46.346Z,1.00
2023-03-26T04:31:17.820Z,1.00
2023-03-26T04:33:47.925Z,1.00
2023-03-26T04:36:17.532Z,1.00
2023-03-26T04:38:46.528Z,1.50
2023-03-26T04:41:17.131Z,1.00
2023-03-26T04:43:50.485Z,1.00
2023-03-26T04:46:21.680Z,1.40
2023-03-26T04:48:49.949Z,1.00
2023-03-26T04:51:19.614Z,1.00
2023-03-26T04:53:52.594Z,3.90
2023-03-26T04:56:31.737Z,4.80
2023-03-26T04:59:02.665Z,5.90
2023-03-26T05:01:30.954Z,6.20
2023-03-26T05:03:59.757Z,6.00
2023-03-26T05:06:30.365Z,5.60
2023-03-26T05:08:58.544Z,6.10
2023-03-26T05:11:28.044Z,5.70
2023-03-26T05:13:56.981Z,6.70
2023-03-26T05:16:25.901Z,6.50
2023-03-26T05:18:54.096Z,6.40
2023-03-26T05:21:22.392Z,6.30
2023-03-26T05:23:50.956Z,7.20
2023-03-26T05:26:19.176Z,7.90
2023-03-26T05:28:48.672Z,8.10
2023-03-26T05:31:21.161Z,10.00
2023-03-26T05:33:49.691Z,8.80
2023-03-26T05:36:19.142Z,7.80
2023-03-26T05:38:49.614Z,7.90
2023-03-26T05:41:18.777Z,8.30
2023-03-26T05:43:48.980Z,8.50
2023-03-26T05:46:18.053Z,8.00
2023-03-26T05:48:46.611Z,7.80
2023-03-26T05:51:16.068Z,7.80
2023-03-26T05:53:44.291Z,11.40
2023-03-26T05:56:12.625Z,13.10
2023-03-26T05:58:42.017Z,12.90
2023-03-26T06:01:17.017Z,12.20
2023-03-26T06:03:46.858Z,12.50
2023-03-26T06:06:17.565Z,15.50
2023-03-26T06:08:46.835Z,14.80
2023-03-26T06:11:14.882Z,15.20
2023-03-26T06:13:43.562Z,16.00
2023-03-26T06:16:26.815Z,15.20
2023-03-26T06:18:57.233Z,18.40
2023-03-26T06:21:26.255Z,17.70
2023-03-26T06:23:54.542Z,18.40
2023-03-26T06:26:22.688Z,19.90
2023-03-26T06:28:51.030Z,21.60
2023-03-26T06:31:20.762Z,37.20
2023-03-26T06:33:48.963Z,55.50
2023-03-26T06:36:17.075Z,42.60
2023-03-26T06:38:45.203Z,27.40
2023-03-26T06:41:13.768Z,27.80
2023-03-26T06:43:41.843Z,30.00
2023-03-26T06:46:10.817Z,55.20
2023-03-26T06:48:42.002Z,55.10
2023-03-26T06:51:10.610Z,56.30
2023-03-26T06:53:38.711Z,54.20
2023-03-26T06:56:09.167Z,55.00
2023-03-26T06:58:37.574Z,55.50
2023-03-26T07:01:05.963Z,55.60
2023-03-26T07:03:34.238Z,54.10
2023-03-26T07:06:03.884Z,53.50
2023-03-26T07:08:32.130Z,55.20
2023-03-26T07:11:00.226Z,53.10
2023-03-26T07:13:28.326Z,56.10
2023-03-26T07:15:56.428Z,53.00
2023-03-26T07:18:24.697Z,51.10
2023-03-26T07:20:53.524Z,52.10
2023-03-26T07:23:23.757Z,51.00
2023-03-26T07:25:52.612Z,50.00
2023-03-26T07:28:27.100Z,49.30
2023-03-26T07:31:04.406Z,51.20
2023-03-26T07:33:38.355Z,53.10
2023-03-26T07:36:21.797Z,52.50
2023-03-26T07:39:05.870Z,53.10
2023-03-26T07:41:41.509Z,51.50
2023-03-26T07:44:30.833Z,52.20
2023-03-26T07:47:01.685Z,53.20
2023-03-26T07:49:30.245Z,51.60
2023-03-26T07:51:58.985Z,51.70
2023-03-26T07:54:28.951Z,51.70
2023-03-26T07:57:00.666Z,52.10
2023-03-26T07:59:35.511Z,51.60
2023-03-26T08:02:23.884Z,52.10
2023-03-26T08:05:10.441Z,51.50
2023-03-26T08:07:52.754Z,51.30
2023-03-26T08:10:27.232Z,48.30
2023-03-26T08:13:03.229Z,46.60
2023-03-26T08:15:37.978Z,47.20
2023-03-26T08:18:27.419Z,46.50
2023-03-26T08:20:58.309Z,46.90
2023-03-26T08:23:33.027Z,44.60
2023-03-26T08:26:12.761Z,44.80
2023-03-26T08:28:52.630Z,44.90
2023-03-26T08:31:29.745Z,45.50
2023-03-26T08:33:57.814Z,43.50
2023-03-26T08:36:26.816Z,45.00
2023-03-26T08:38:55.331Z,45.40
2023-03-26T08:42:03.088Z,46.00
2023-03-26T08:45:05.980Z,46.60
2023-03-26T08:48:25.974Z,45.20
2023-03-26T08:51:27.865Z,44.60
2023-03-26T08:54:37.282Z,45.50
2023-03-26T08:57:15.929Z,44.00
2023-03-26T09:00:15.519Z,43.40
2023-03-26T09:03:09.511Z,44.00
2023-03-26T09:05:54.750Z,44.50
2023-03-26T09:08:59.073Z,44.90
2023-03-26T09:11:53.000Z,46.30
2023-03-26T09:14:53.938Z,44.60
2023-03-26T09:17:58.129Z,46.00
2023-03-26T09:21:02.925Z,45.90
2023-03-26T09:24:17.052Z,44.90
2023-03-26T09:26:51.451Z,44.90
2023-03-26T09:30:01.650Z,45.60
2023-03-26T09:33:13.074Z,45.40
2023-03-26T09:36:17.215Z,43.50
2023-03-26T09:38:46.791Z,44.00
2023-03-26T09:41:18.312Z,43.70
2023-03-26T09:44:25.887Z,44.10
2023-03-26T09:47:11.097Z,43.10
2023-03-26T09:49:47.084Z,42.20
2023-03-26T09:52:32.425Z,43.90
2023-03-26T09:55:34.594Z,40.00
2023-03-26T09:58:17.930Z,40.90
2023-03-26T10:00:52.594Z,40.30
2023-03-26T10:03:32.116Z,38.70
2023-03-26T10:06:15.145Z,38.90
2023-03-26T10:09:13.883Z,37.70
2023-03-26T10:11:59.541Z,35.60
2023-03-26T10:14:36.023Z,34.70
2023-03-26T10:17:16.743Z,35.50
2023-03-26T10:19:58.172Z,36.00
2023-03-26T10:22:44.565Z,36.30
2023-03-26T10:25:27.036Z,37.20
2023-03-26T10:28:05.722Z,36.60
2023-03-26T10:30:49.956Z,36.30
2023-03-26T10:33:30.512Z,36.30
2023-03-26T10:36:20.182Z,37.70
2023-03-26T10:39:09.199Z,38.20
2023-03-26T10:41:46.005Z,37.80
2023-03-26T10:44:29.747Z,39.90
2023-03-26T10:47:23.819Z,38.40
2023-03-26T10:50:27.361Z,37.50
2023-03-26T10:52:58.372Z,38.30
2023-03-26T10:55:32.838Z,37.00
2023-03-26T10:58:06.852Z,36.80
2023-03-26T11:00:39.919Z,38.30
2023-03-26T11:03:23.832Z,36.80
2023-03-26T11:06:00.138Z,36.90
2023-03-26T11:08:35.427Z,38.40
2023-03-26T11:11:15.524Z,38.10
2023-03-26T11:13:54.536Z,38.40
2023-03-26T11:16:31.722Z,37.80
2023-03-26T11:19:05.588Z,37.60
2023-03-26T11:21:39.853Z,37.30
2023-03-26T11:24:40.765Z,38.00
2023-03-26T11:27:19.977Z,38.10
2023-03-26T11:29:56.544Z,39.00
2023-03-26T11:32:28.043Z,39.50
2023-03-26T11:35:02.323Z,39.30
2023-03-26T11:37:34.209Z,40.70
2023-03-26T11:40:06.413Z,42.30
2023-03-26T11:42:36.040Z,40.80
2023-03-26T11:45:06.512Z,40.20
2023-03-26T11:47:39.599Z,41.50
2023-03-26T11:50:16.359Z,41.70
2023-03-26T11:52:46.851Z,41.70
2023-03-26T11:55:15.822Z,41.70
2023-03-26T11:57:51.315Z,42.50
2023-03-26T12:00:23.040Z,43.50
2023-03-26T12:02:51.873Z,44.80
2023-03-26T12:05:22.099Z,44.40
2023-03-26T12:07:55.846Z,45.30
2023-03-26T12:10:37.712Z,43.30
2023-03-26T12:13:27.777Z,44.40
2023-03-26T12:15:59.445Z,44.90
2023-03-26T12:18:28.830Z,45.50
2023-03-26T12:21:09.322Z,45.70
2023-03-26T12:23:51.269Z,47.10
2023-03-26T12:26:21.076Z,53.80
2023-03-26T12:28:52.202Z,54.00
2023-03-26T12:31:20.821Z,41.30
2023-03-26T12:34:07.514Z,43.00
2023-03-26T12:36:36.517Z,42.40
2023-03-26T12:40:07.726Z,42.70
2023-03-26T12:44:44.732Z,43.20
2023-03-26T12:45:17.385Z,41.10
2023-03-26T12:47:57.449Z,43.10
2023-03-26T12:50:37.891Z,41.60
2023-03-26T12:53:42.921Z,44.30
2023-03-26T12:56:21.840Z,43.50
2023-03-26T12:59:12.980Z,43.50
2023-03-26T13:01:53.647Z,43.00
2023-03-26T13:05:05.056Z,46.10
2023-03-26T13:07:52.669Z,43.80
2023-03-26T13:10:46.008Z,35.10
2023-03-26T13:13:44.137Z,34.30
2023-03-26T13:16:19.631Z,34.30
2023-03-26T13:18:55.936Z,36.30
2023-03-26T13:21:34.618Z,35.80
2023-03-26T13:24:11.504Z,37.00
2023-03-26T13:26:54.481Z,35.00
2023-03-26T13:29:31.075Z,36.60
2023-03-26T13:32:08.386Z,34.40
2023-03-26T13:34:55.493Z,34.40
2023-03-26T13:37:28.882Z,33.60
2023-03-26T13:40:14.108Z,32.10
2023-03-26T13:42:56.539Z,29.20
2023-03-26T13:45:39.299Z,23.40
2023-03-26T13:48:15.679Z,24.60
2023-03-26T13:50:51.915Z,25.80
2023-03-26T13:53:26.009Z,25.80
2023-03-26T13:55:57.700Z,26.40
2023-03-26T13:58:34.309Z,27.10
2023-03-26T14:01:07.534Z,26.20
2023-03-26T14:03:48.097Z,25.00
2023-03-26T14:06:31.931Z,26.80
2023-03-26T14:09:05.016Z,26.30
2023-03-26T14:11:49.103Z,26.80
2023-03-26T14:14:21.960Z,28.30
2023-03-26T14:16:54.617Z,28.40
2023-03-26T14:20:09.729Z,29.10
2023-03-26T14:22:54.955Z,27.60
2023-03-26T14:25:33.757Z,29.10
2023-03-26T14:28:22.663Z,28.00
2023-03-26T14:31:03.925Z,27.50
2023-03-26T14:33:58.396Z,28.30
2023-03-26T14:36:49.225Z,27.80
2023-03-26T14:39:38.568Z,17.00
2023-03-26T14:42:16.160Z,18.80
2023-03-26T14:45:09.163Z,19.70
2023-03-26T14:47:42.729Z,21.50
2023-03-26T14:50:46.697Z,18.50
2023-03-26T14:53:29.626Z,23.20
2023-03-26T14:56:34.457Z,23.80
2023-03-26T14:59:49.220Z,26.80
2023-03-26T15:03:07.417Z,25.90
2023-03-26T15:06:07.606Z,17.40
2023-03-26T15:09:28.426Z,29.20
2023-03-26T15:12:12.420Z,30.00
2023-03-26T15:15:26.352Z,32.10
2023-03-26T15:18:21.055Z,33.00
2023-03-26T15:21:20.145Z,34.70
2023-03-26T15:24:21.438Z,36.90
2023-03-26T15:27:32.032Z,40.90
2023-03-26T15:30:36.161Z,39.60
2023-03-26T15:33:39.956Z,40.10
2023-03-26T15:36:44.652Z,39.90
2023-03-26T15:39:59.736Z,40.00
2023-03-26T15:42:38.232Z,40.50
2023-03-26T15:45:33.329Z,41.50
2023-03-26T15:48:30.004Z,41.00
2023-03-26T15:51:15.313Z,41.80
2023-03-26T15:53:51.140Z,43.80
2023-03-26T15:56:29.493Z,42.50
2023-03-26T15:59:06.277Z,36.60
2023-03-26T16:01:47.932Z,35.60
2023-03-26T16:04:29.564Z,34.30
2023-03-26T16:07:03.678Z,33.80
2023-03-26T16:09:56.280Z,34.20
2023-03-26T16:12:34.908Z,33.90
2023-03-26T16:15:31.906Z,35.00
2023-03-26T16:18:33.926Z,30.00
2023-03-26T16:21:36.347Z,31.70
2023-03-26T16:24:23.323Z,32.20
2023-03-26T16:27:08.022Z,32.60
2023-03-26T16:30:20.225Z,33.00
2023-03-26T16:32:56.081Z,37.50
2023-03-26T16:35:42.646Z,40.00
2023-03-26T16:38:16.376Z,40.30
2023-03-26T16:41:01.856Z,39.20
2023-03-26T16:43:53.943Z,37.70
2023-03-26T16:46:38.061Z,37.00
2023-03-26T16:49:20.419Z,36.60
2023-03-26T16:52:12.737Z,36.30
2023-03-26T16:54:46.986Z,36.50
2023-03-26T16:57:27.087Z,33.10
2023-03-26T17:00:29.704Z,34.80
2023-03-26T17:03:13.059Z,33.90
2023-03-26T17:06:05.958Z,31.30
2023-03-26T17:08:44.053Z,29.00
2023-03-26T17:11:23.171Z,28.80
2023-03-26T17:14:03.598Z,29.40
2023-03-26T17:16:35.923Z,27.40
2023-03-26T17:19:13.394Z,27.50
2023-03-26T17:21:51.023Z,26.50
2023-03-26T17:24:28.693Z,26.60
2023-03-26T17:27:02.627Z,26.30
2023-03-26T17:29:43.193Z,27.20
2023-03-26T17:32:14.802Z,24.90
2023-03-26T17:34:56.570Z,24.60
2023-03-26T17:37:43.407Z,25.20
2023-03-26T17:40:46.456Z,22.50
2023-03-26T17:43:43.654Z,23.00
2023-03-26T17:46:28.679Z,23.50
2023-03-26T17:49:01.982Z,23.70
2023-03-26T17:51:41.079Z,24.20
2023-03-26T17:54:19.340Z,22.70
2023-03-26T17:56:48.732Z,23.80
2023-03-26T17:59:23.278Z,23.00
2023-03-26T18:01:55.437Z,25.10
2023-03-26T18:04:31.145Z,23.90
2023-03-26T18:07:20.697Z,15.30
2023-03-26T18:10:05.579Z,14.50
2023-03-26T18:12:50.848Z,14.60
2023-03-26T18:15:34.888Z,13.90
2023-03-26T18:18:12.483Z,12.80
2023-03-26T18:20:42.642Z,13.30
2023-03-26T18:23:12.466Z,13.10
2023-03-26T18:25:42.165Z,13.30
2023-03-26T18:28:15.643Z,13.00
2023-03-26T18:30:48.496Z,1.00
2023-03-26T18:33:17.152Z,1.00
2023-03-26T18:35:47.389Z,1.00
2023-03-26T18:38:35.036Z,1.00
2023-03-26T18:41:07.921Z,1.00
2023-03-26T18:43:44.502Z,1.00
2023-03-26T18:46:14.603Z,1.00
2023-03-26T18:48:43.082Z,1.00
2023-03-26T18:51:11.882Z,1.00
2023-03-26T18:53:44.589Z,1.00
2023-03-26T18:56:30.144Z,1.00
2023-03-26T18:59:00.336Z,1.00
2023-03-26T19:01:31.593Z,1.00
2023-03-26T19:04:03.669Z,1.00
2023-03-26T19:06:36.051Z,1.00
2023-03-26T19:09:16.401Z,1.00
2023-03-26T19:11:57.062Z,1.00
2023-03-26T19:14:27.039Z,1.00
2023-03-26T19:16:59.036Z,1.00
2023-03-26T19:19:31.441Z,1.00
2023-03-26T19:22:00.053Z,1.00
2023-03-26T19:24:28.642Z,1.00
2023-03-26T19:26:58.193Z,1.00
2023-03-26T19:29:27.159Z,1.00
2023-03-26T19:32:02.820Z,1.00
2023-03-26T19:34:35.034Z,1.00
2023-03-26T19:37:05.290Z,1.00
2023-03-26T19:39:40.526Z,1.00
2023-03-26T19:42:15.901Z,1.00
2023-03-26T19:44:44.641Z,1.00
2023-03-26T19:47:18.486Z,1.00
2023-03-26T19:49:55.964Z,1.00
2023-03-26T19:52:26.668Z,1.00
2023-03-26T19:54:59.843Z,1.00
2023-03-26T19:57:32.118Z,1.00
2023-03-26T20:00:00.703Z,1.00
2023-03-26T20:02:29.168Z,1.00
2023-03-26T20:04:57.304Z,1.00
2023-03-26T20:07:35.267Z,1.00
2023-03-26T20:10:06.432Z,1.00
2023-03-26T20:12:36.068Z,1.00
2023-03-26T20:15:19.404Z,1.00
2023-03-26T20:17:50.177Z,1.00
2023-03-26T20:20:18.554Z,1.00
2023-03-26T20:22:47.267Z,1.00
2023-03-26T20:25:20.422Z,1.00
2023-03-26T20:27:52.956Z,1.00
2023-03-26T20:30:36.425Z,1.00
2023-03-26T20:33:12.144Z,1.00
2023-03-26T20:35:42.707Z,1.00
2023-03-26T20:38:11.175Z,1.00
2023-03-26T20:40:40.136Z,1.00
2023-03-26T20:43:14.194Z,1.00
2023-03-26T20:45:42.785Z,1.00
2023-03-26T20:48:11.814Z,1.00
2023-03-26T20:50:50.402Z,1.00
2023-03-26T20:53:20.340Z,1.00
2023-03-26T20:55:51.018Z,1.00
2023-03-26T20:58:31.162Z,1.00
2023-03-26T21:01:02.383Z,1.00
2023-03-26T21:03:30.717Z,1.00
2023-03-26T21:06:01.221Z,1.00
2023-03-26T21:08:35.111Z,1.00
2023-03-26T21:11:04.805Z,1.00
2023-03-26T21:13:39.996Z,1.00
2023-03-26T21:16:12.044Z,1.00
2023-03-26T21:18:41.825Z,1.00
2023-03-26T21:21:26.238Z,1.00
2023-03-26T21:24:00.249Z,1.00
2023-03-26T21:26:33.996Z,1.00
2023-03-26T21:29:12.000Z,1.00
2023-03-26T21:31:40.797Z,1.00
2023-03-26T21:34:09.621Z,1.00
2023-03-26T21:36:38.390Z,1.00
2023-03-26T21:39:07.375Z,1.00
2023-03-26T21:41:43.940Z,1.00
2023-03-26T21:44:14.285Z,1.00
2023-03-26T21:46:43.697Z,1.00
2023-03-26T21:49:12.391Z,1.00
2023-03-26T21:51:41.090Z,1.60
2023-03-26T21:54:23.182Z,2.80
2023-03-26T21:57:02.590Z,3.90
2023-03-26T21:59:39.973Z,4.40
2023-03-26T22:02:14.176Z,4.00
2023-03-26T22:04:47.299Z,4.00
2023-03-26T22:07:18.758Z,12.70
2023-03-26T22:09:47.474Z,9.40
2023-03-26T22:12:16.590Z,10.00
2023-03-26T22:14:46.037Z,10.10
2023-03-26T22:17:14.290Z,9.70
2023-03-26T22:19:42.451Z,9.80
2023-03-26T22:22:10.919Z,8.20
2023-03-26T22:24:39.020Z,6.30
2023-03-26T22:27:07.752Z,14.70
2023-03-26T22:29:35.821Z,11.90
2023-03-26T22:32:05.430Z,10.40
2023-03-26T22:34:34.946Z,14.40
2023-03-26T22:37:02.877Z,8.90
2023-03-26T22:39:31.254Z,12.30
2023-03-26T22:42:01.391Z,10.20
2023-03-26T22:44:29.453Z,6.50
2023-03-26T22:46:57.495Z,7.30
2023-03-26T22:49:27.464Z,9.50
2023-03-26T22:51:55.699Z,9.50
2023-03-26T22:54:24.038Z,6.60
2023-03-26T22:56:52.958Z,9.60
2023-03-26T22:59:21.060Z,9.20
2023-03-26T23:01:49.286Z,15.40
2023-03-26T23:04:30.912Z,19.20
2023-03-26T23:07:01.628Z,15.20
2023-03-26T23:09:29.616Z,14.70
2023-03-26T23:11:57.699Z,16.20
2023-03-26T23:14:25.993Z,19.60
2023-03-26T23:16:54.052Z,19.80
2023-03-26T23:19:22.164Z,15.30
2023-03-26T23:21:50.218Z,12.90
2023-03-26T23:24:19.749Z,10.10
2023-03-26T23:26:51.156Z,9.90
2023-03-26T23:29:19.637Z,12.80
2023-03-26T23:31:48.065Z,14.00
2023-03-26T23:34:16.984Z,18.10
2023-03-26T23:36:45.554Z,21.80
2023-03-26T23:39:13.838Z,21.90
2023-03-26T23:41:43.794Z,18.80
2023-03-26T23:44:14.440Z,21.10
2023-03-26T23:46:42.762Z,23.60
2023-03-26T23:49:12.076Z,22.40
2023-03-26T23:51:40.223Z,22.50
2023-03-26T23:54:08.836Z,28.30
2023-03-26T23:56:37.033Z,26.30
2023-03-26T23:59:06.484Z,24.70
